createdAt,value
2019-01-09T00:01:26.893Z,97551.67
2019-01-09T00:03:57.287Z,97551.38
2019-01-09T00:06:27.846Z,97545.70
2019-01-09T00:08:58.214Z,97538.05
2019-01-09T00:11:28.693Z,97550.08
2019-01-09T00:13:59.244Z,97539.45
2019-01-09T00:16:29.809Z,97531.23
2019-01-09T00:19:00.176Z,97532.05
2019-01-09T00:21:30.611Z,97535.19
2019-01-09T00:24:01.047Z,97533.14
2019-01-09T00:26:31.411Z,97527.56
2019-01-09T00:29:01.741Z,97529.89
2019-01-09T00:31:32.138Z,97529.89
2019-01-09T00:34:02.575Z,97511.37
2019-01-09T00:36:33.051Z,97513.89
2019-01-09T00:39:04.811Z,97518.14
2019-01-09T00:41:35.208Z,97511.17
2019-01-09T00:44:05.750Z,97512.57
2019-01-09T00:46:36.317Z,97514.20
2019-01-09T00:49:06.720Z,97509.97
2019-01-09T00:51:37.228Z,97520.21
2019-01-09T00:54:07.711Z,97524.27
2019-01-09T00:56:38.151Z,97521.25
2019-01-09T00:59:08.813Z,97518.64
2019-01-09T01:01:39.324Z,97519.77
2019-01-09T01:04:52.261Z,97519.34
2019-01-09T01:08:31.189Z,97522.38
2019-01-09T01:11:33.121Z,97523.20
2019-01-09T01:15:05.299Z,97516.22
2019-01-09T01:18:31.126Z,97507.43
2019-01-09T01:21:11.101Z,97514.47
2019-01-09T01:24:46.380Z,97508.13
2019-01-09T01:27:55.995Z,97505.49
2019-01-09T01:31:16.150Z,97518.11
2019-01-09T01:34:28.109Z,97521.36
2019-01-09T01:37:58.171Z,97508.66
2019-01-09T01:40:49.464Z,97497.75
2019-01-09T01:43:40.635Z,97478.63
2019-01-09T01:47:06.030Z,97484.09
2019-01-09T01:50:19.838Z,97475.12
2019-01-09T01:53:19.879Z,97471.81
2019-01-09T01:56:44.793Z,97478.28
2019-01-09T01:59:54.499Z,97487.38
2019-01-09T02:03:11.890Z,97478.25
2019-01-09T02:06:03.649Z,97486.04
2019-01-09T02:09:09.902Z,97485.63
2019-01-09T02:12:09.779Z,97493.35
2019-01-09T02:15:41.991Z,97479.63
2019-01-09T02:18:47.226Z,97477.87
2019-01-09T02:22:12.978Z,97482.44
2019-01-09T02:25:28.417Z,97483.03
2019-01-09T02:28:42.159Z,97462.02
2019-01-09T02:31:59.707Z,97449.20
2019-01-09T02:34:30.000Z,97452.84
2019-01-09T02:37:00.342Z,97452.12
2019-01-09T02:39:30.635Z,97454.23
2019-01-09T02:42:01.027Z,97454.45
2019-01-09T02:44:32.364Z,97438.81
2019-01-09T02:47:02.989Z,97432.84
2019-01-09T02:49:33.319Z,97440.81
2019-01-09T02:52:03.713Z,97435.87
2019-01-09T02:54:34.189Z,97444.96
2019-01-09T02:57:04.542Z,97434.67
2019-01-09T02:59:34.955Z,97433.05
2019-01-09T03:02:05.334Z,97433.86
2019-01-09T03:04:35.607Z,97432.64
2019-01-09T03:07:05.983Z,97448.59
2019-01-09T03:09:36.131Z,97440.53
2019-01-09T03:12:06.473Z,97433.55
2019-01-09T03:14:36.790Z,97432.73
2019-01-09T03:17:07.174Z,97426.56
2019-01-09T03:19:37.622Z,97412.53
2019-01-09T03:22:07.956Z,97430.72
2019-01-09T03:24:38.394Z,97410.42
2019-01-09T03:27:08.807Z,97418.69
2019-01-09T03:29:39.232Z,97418.69
2019-01-09T03:32:09.616Z,97412.33
2019-01-09T03:34:40.084Z,97421.64
2019-01-09T03:37:10.484Z,97411.33
2019-01-09T03:39:40.858Z,97410.92
2019-01-09T03:42:11.279Z,97417.47
2019-01-09T03:44:41.684Z,97415.32
2019-01-09T03:47:12.063Z,97408.91
2019-01-09T03:49:42.469Z,97403.03
2019-01-09T03:52:12.837Z,97404.25
2019-01-09T03:54:43.169Z,97393.44
2019-01-09T03:57:13.466Z,97390.51
2019-01-09T03:59:43.923Z,97380.83
2019-01-09T04:02:14.291Z,97386.29
2019-01-09T04:04:44.709Z,97389.92
2019-01-09T04:07:15.137Z,97374.53
2019-01-09T04:09:45.624Z,97385.92
2019-01-09T04:12:15.863Z,97383.70
2019-01-09T04:14:46.176Z,97383.83
2019-01-09T04:17:16.404Z,97381.80
2019-01-09T04:19:46.747Z,97381.80
2019-01-09T04:22:16.925Z,97378.77
2019-01-09T04:24:47.154Z,97384.73
2019-01-09T04:27:17.445Z,97381.89
2019-01-09T04:29:47.873Z,97372.83
2019-01-09T04:32:18.112Z,97372.20
2019-01-09T04:34:48.465Z,97377.58
2019-01-09T04:37:18.744Z,97367.58
2019-01-09T04:39:48.939Z,97367.89
2019-01-09T04:42:19.312Z,97364.36
2019-01-09T04:44:49.568Z,97359.60
2019-01-09T04:47:19.873Z,97356.00
2019-01-09T04:49:50.140Z,97354.16
2019-01-09T04:52:20.394Z,97344.26
2019-01-09T04:54:50.573Z,97358.52
2019-01-09T04:57:20.730Z,97352.95
2019-01-09T04:59:51.128Z,97345.88
2019-01-09T05:02:21.436Z,97345.27
2019-01-09T05:04:51.701Z,97354.77
2019-01-09T05:07:22.000Z,97354.17
2019-01-09T05:09:53.773Z,97348.30
2019-01-09T05:12:24.146Z,97356.37
2019-01-09T05:14:54.428Z,97359.30
2019-01-09T05:17:24.792Z,97350.52
2019-01-09T05:19:55.090Z,97351.03
2019-01-09T05:22:25.385Z,97357.00
2019-01-09T05:24:55.725Z,97355.06
2019-01-09T05:27:26.089Z,97344.08
2019-01-09T05:29:56.371Z,97348.72
2019-01-09T05:32:26.894Z,97347.20
2019-01-09T05:34:58.247Z,97340.95
2019-01-09T05:37:28.615Z,97324.39
2019-01-09T05:39:58.992Z,97332.35
2019-01-09T05:42:29.240Z,97335.48
2019-01-09T05:44:59.585Z,97332.16
2019-01-09T05:47:29.951Z,97326.80
2019-01-09T05:50:00.335Z,97331.27
2019-01-09T05:52:30.632Z,97324.27
2019-01-09T05:55:00.932Z,97326.52
2019-01-09T05:57:31.252Z,97330.73
2019-01-09T06:00:01.663Z,97331.66
2019-01-09T06:02:31.889Z,97336.89
2019-01-09T06:05:02.230Z,97343.67
2019-01-09T06:07:33.667Z,97343.56
2019-01-09T06:10:04.208Z,97346.59
2019-01-09T06:12:34.555Z,97353.06
2019-01-09T06:15:05.214Z,97361.95
2019-01-09T06:17:35.650Z,97362.16
2019-01-09T06:20:07.500Z,97365.90
2019-01-09T06:22:37.956Z,97373.21
2019-01-09T06:25:08.453Z,97385.06
2019-01-09T06:27:38.895Z,97380.13
2019-01-09T06:30:10.030Z,97386.77
2019-01-09T06:32:40.520Z,97383.09
2019-01-09T06:35:10.845Z,97380.23
2019-01-09T06:37:41.285Z,97361.53
2019-01-09T06:40:11.650Z,97367.09
2019-01-09T06:42:41.971Z,97374.10
2019-01-09T06:45:12.365Z,97379.66
2019-01-09T06:47:42.790Z,97393.17
2019-01-09T06:50:18.074Z,97397.98
2019-01-09T06:52:48.561Z,97412.20
2019-01-09T06:55:18.782Z,97422.48
2019-01-09T06:57:49.162Z,97383.87
2019-01-09T07:00:19.956Z,97379.30
2019-01-09T07:02:50.284Z,97379.63
2019-01-09T07:05:20.528Z,97383.73
2019-01-09T07:07:50.852Z,97385.39
2019-01-09T07:10:21.058Z,97394.48
2019-01-09T07:12:51.348Z,97412.31
2019-01-09T07:15:21.591Z,97405.41
2019-01-09T07:17:51.789Z,97405.52
2019-01-09T07:20:21.998Z,97398.91
2019-01-09T07:22:52.434Z,97401.52
2019-01-09T07:25:22.733Z,97402.02
2019-01-09T07:27:53.179Z,97405.77
2019-01-09T07:30:23.608Z,97405.70
2019-01-09T07:32:53.988Z,97409.63
2019-01-09T07:35:24.441Z,97410.86
2019-01-09T07:37:54.685Z,97404.17
2019-01-09T07:40:25.039Z,97396.67
2019-01-09T07:42:55.279Z,97392.41
2019-01-09T07:45:25.641Z,97390.29
2019-01-09T07:47:55.951Z,97386.92
2019-01-09T07:50:26.175Z,97384.06
2019-01-09T07:52:56.344Z,97387.08
2019-01-09T07:55:26.775Z,97388.34
2019-01-09T07:57:57.122Z,97385.72
2019-01-09T08:00:27.558Z,97386.21
2019-01-09T08:02:57.905Z,97384.83
2019-01-09T08:05:28.231Z,97390.06
2019-01-09T08:07:58.581Z,97381.80
2019-01-09T08:10:28.880Z,97379.77
2019-01-09T08:12:59.212Z,97383.48
2019-01-09T08:15:29.517Z,97382.75
2019-01-09T08:17:59.938Z,97385.41
2019-01-09T08:20:30.413Z,97386.72
2019-01-09T08:23:00.734Z,97388.24
2019-01-09T08:25:31.220Z,97408.63
2019-01-09T08:28:01.957Z,97412.14
2019-01-09T08:30:32.568Z,97423.39
2019-01-09T08:33:02.818Z,97429.92
2019-01-09T08:35:33.133Z,97432.91
2019-01-09T08:38:03.545Z,97438.88
2019-01-09T08:40:33.845Z,97430.95
2019-01-09T08:43:04.360Z,97425.81
2019-01-09T08:45:34.876Z,97428.68
2019-01-09T08:48:05.312Z,97428.45
2019-01-09T08:50:35.645Z,97431.23
2019-01-09T08:53:06.127Z,97438.94
2019-01-09T08:55:36.472Z,97443.96
2019-01-09T08:58:06.892Z,97436.52
2019-01-09T09:00:37.213Z,97453.63
2019-01-09T09:03:07.953Z,97458.43
2019-01-09T09:05:38.179Z,97463.52
2019-01-09T09:08:12.242Z,97477.20
2019-01-09T09:10:40.658Z,97479.81
2019-01-09T09:13:24.141Z,97491.56
2019-01-09T09:15:54.403Z,97485.01
2019-01-09T09:18:24.766Z,97480.06
2019-01-09T09:20:55.000Z,97491.56
2019-01-09T09:23:25.393Z,97486.88
2019-01-09T09:25:55.789Z,97497.55
2019-01-09T09:28:26.176Z,97499.41
2019-01-09T09:30:56.465Z,97497.55
2019-01-09T09:33:27.890Z,97500.41
2019-01-09T09:35:58.246Z,97491.22
2019-01-09T09:38:28.700Z,97497.58
2019-01-09T09:40:59.160Z,97501.28
2019-01-09T09:43:29.628Z,97499.56
2019-01-09T09:46:00.075Z,97503.73
2019-01-09T09:48:30.424Z,97497.89
2019-01-09T09:51:01.063Z,97509.98
2019-01-09T09:53:31.455Z,97503.88
2019-01-09T09:56:01.941Z,97508.33
2019-01-09T09:58:33.202Z,97506.69
2019-01-09T10:01:03.717Z,97510.94
2019-01-09T10:03:34.059Z,97511.70
2019-01-09T10:06:04.470Z,97520.83
2019-01-09T10:08:34.740Z,97515.14
2019-01-09T10:11:06.277Z,97516.14
2019-01-09T10:13:36.661Z,97516.27
2019-01-09T10:16:07.139Z,97520.08
2019-01-09T10:18:37.425Z,97510.52
2019-01-09T10:21:07.918Z,97508.16
2019-01-09T10:23:38.156Z,97514.92
2019-01-09T10:26:08.551Z,97514.46
2019-01-09T10:28:38.762Z,97508.08
2019-01-09T10:31:09.093Z,97498.80
2019-01-09T10:33:39.554Z,97504.15
2019-01-09T10:36:10.001Z,97503.69
2019-01-09T10:38:40.408Z,97503.41
2019-01-09T10:41:10.819Z,97496.75
2019-01-09T10:43:41.180Z,97499.79
2019-01-09T10:46:11.507Z,97490.11
2019-01-09T10:48:41.830Z,97493.47
2019-01-09T10:51:12.246Z,97489.34
2019-01-09T10:53:42.593Z,97486.84
2019-01-09T10:56:12.969Z,97481.69
2019-01-09T10:58:43.251Z,97490.07
2019-01-09T11:01:13.669Z,97491.06
2019-01-09T11:03:44.054Z,97485.22
2019-01-09T11:06:14.638Z,97481.81
2019-01-09T11:08:47.112Z,97489.76
2019-01-09T11:11:16.948Z,97487.57
2019-01-09T11:13:47.262Z,97482.50
2019-01-09T11:16:17.774Z,97484.13
2019-01-09T11:18:48.168Z,97482.05
2019-01-09T11:21:18.643Z,97480.92
2019-01-09T11:23:48.871Z,97478.32
2019-01-09T11:26:19.480Z,97484.35
2019-01-09T11:28:49.798Z,97490.66
2019-01-09T11:31:20.101Z,97485.71
2019-01-09T11:33:50.426Z,97483.69
2019-01-09T11:36:20.851Z,97480.41
2019-01-09T11:38:55.606Z,97481.98
2019-01-09T11:41:23.270Z,97479.59
2019-01-09T11:43:53.709Z,97481.53
2019-01-09T11:46:24.348Z,97474.89
2019-01-09T11:48:55.321Z,97468.98
2019-01-09T11:51:25.809Z,97466.50
2019-01-09T11:53:56.139Z,97463.83
2019-01-09T11:56:26.596Z,97462.42
2019-01-09T11:58:56.857Z,97470.12
2019-01-09T12:01:27.415Z,97462.50
2019-01-09T12:03:57.904Z,97460.69
2019-01-09T12:06:28.272Z,97462.00
2019-01-09T12:09:04.496Z,97457.38
2019-01-09T12:11:31.423Z,97457.59
2019-01-09T12:14:01.911Z,97454.17
2019-01-09T12:16:32.376Z,97457.70
2019-01-09T12:19:02.806Z,97455.47
2019-01-09T12:21:33.254Z,97459.92
2019-01-09T12:24:03.620Z,97459.51
2019-01-09T12:26:33.926Z,97461.31
2019-01-09T12:29:04.311Z,97457.00
2019-01-09T12:31:37.964Z,97460.03
2019-01-09T12:34:08.461Z,97454.78
2019-01-09T12:36:38.780Z,97451.91
2019-01-09T12:39:13.364Z,97449.78
2019-01-09T12:41:41.852Z,97454.56
2019-01-09T12:44:12.248Z,97450.84
2019-01-09T12:46:42.515Z,97453.05
2019-01-09T12:49:12.830Z,97454.55
2019-01-09T12:51:43.228Z,97458.88
2019-01-09T12:54:13.584Z,97456.22
2019-01-09T12:56:44.206Z,97461.44
2019-01-09T12:59:21.561Z,97463.32
2019-01-09T13:01:47.002Z,97461.10
2019-01-09T13:04:17.517Z,97455.45
2019-01-09T13:06:47.911Z,97456.13
2019-01-09T13:09:22.389Z,97449.80
2019-01-09T13:11:50.492Z,97451.56
2019-01-09T13:14:20.685Z,97454.19
2019-01-09T13:16:50.991Z,97454.73
2019-01-09T13:19:21.183Z,97450.16
2019-01-09T13:21:51.410Z,97471.06
2019-01-09T13:24:21.672Z,97471.92
2019-01-09T13:26:52.074Z,97471.60
2019-01-09T13:29:22.312Z,97463.72
2019-01-09T13:31:52.757Z,97466.86
2019-01-09T13:34:22.926Z,97460.43
2019-01-09T13:36:53.258Z,97451.52
2019-01-09T13:39:30.633Z,97456.45
2019-01-09T13:41:55.760Z,97471.10
2019-01-09T13:44:26.163Z,97474.97
2019-01-09T13:46:56.514Z,97482.69
2019-01-09T13:49:26.910Z,97487.02
2019-01-09T13:51:57.112Z,97481.60
2019-01-09T13:54:27.543Z,97480.08
2019-01-09T13:56:57.941Z,97476.03
2019-01-09T13:59:28.404Z,97482.51
2019-01-09T14:01:58.751Z,97496.45
2019-01-09T14:04:29.147Z,97496.64
2019-01-09T14:06:59.645Z,97502.27
2019-01-09T14:09:30.133Z,97504.22
2019-01-09T14:12:00.488Z,97505.39
2019-01-09T14:14:30.767Z,97507.69
2019-01-09T14:17:01.127Z,97494.03
2019-01-09T14:19:31.560Z,97502.20
2019-01-09T14:22:01.979Z,97502.66
2019-01-09T14:24:32.470Z,97509.95
2019-01-09T14:27:02.807Z,97509.55
2019-01-09T14:29:33.094Z,97507.80
2019-01-09T14:32:03.327Z,97506.93
2019-01-09T14:34:33.740Z,97514.48
2019-01-09T14:37:04.107Z,97515.33
2019-01-09T14:39:34.482Z,97520.22
2019-01-09T14:42:04.887Z,97521.88
2019-01-09T14:44:35.266Z,97525.16
2019-01-09T14:47:05.674Z,97520.91
2019-01-09T14:49:35.976Z,97530.00
2019-01-09T14:52:06.405Z,97532.86
2019-01-09T14:54:36.692Z,97535.11
2019-01-09T14:57:07.104Z,97539.47
2019-01-09T14:59:37.367Z,97545.36
2019-01-09T15:02:07.814Z,97538.81
2019-01-09T15:04:38.060Z,97536.27
2019-01-09T15:07:08.340Z,97536.48
2019-01-09T15:09:38.869Z,97541.89
2019-01-09T15:12:09.296Z,97542.28
2019-01-09T15:14:39.576Z,97544.91
2019-01-09T15:17:10.081Z,97555.03
2019-01-09T15:19:40.556Z,97560.97
2019-01-09T15:22:10.860Z,97562.45
2019-01-09T15:24:41.241Z,97570.59
2019-01-09T15:27:11.598Z,97589.72
2019-01-09T15:29:42.072Z,97593.95
2019-01-09T15:32:12.335Z,97585.66
2019-01-09T15:34:42.727Z,97590.63
2019-01-09T15:37:13.103Z,97587.70
2019-01-09T15:39:43.533Z,97588.54
2019-01-09T15:42:13.960Z,97591.45
2019-01-09T15:44:44.255Z,97593.57
2019-01-09T15:47:14.584Z,97593.30
2019-01-09T15:49:44.851Z,97606.92
2019-01-09T15:52:15.242Z,97603.28
2019-01-09T15:54:45.650Z,97604.39
2019-01-09T15:57:15.922Z,97614.74
2019-01-09T15:59:46.310Z,97605.84
2019-01-09T16:02:16.634Z,97614.86
2019-01-09T16:04:47.017Z,97610.20
2019-01-09T16:07:17.365Z,97614.86
2019-01-09T16:09:47.672Z,97613.20
2019-01-09T16:12:18.085Z,97619.31
2019-01-09T16:14:48.392Z,97619.11
2019-01-09T16:17:18.720Z,97624.22
2019-01-09T16:19:49.069Z,97618.55
2019-01-09T16:22:19.307Z,97616.88
2019-01-09T16:24:49.738Z,97622.16
2019-01-09T16:27:20.085Z,97619.92
2019-01-09T16:29:50.440Z,97626.84
2019-01-09T16:32:21.880Z,97633.23
2019-01-09T16:34:52.194Z,97632.45
2019-01-09T16:37:22.426Z,97633.12
2019-01-09T16:39:52.716Z,97640.75
2019-01-09T16:42:22.899Z,97640.58
2019-01-09T16:44:53.319Z,97642.33
2019-01-09T16:47:23.707Z,97639.59
2019-01-09T16:49:54.111Z,97639.27
2019-01-09T16:52:24.359Z,97649.42
2019-01-09T16:54:54.774Z,97653.72
2019-01-09T16:57:25.156Z,97652.42
2019-01-09T16:59:56.331Z,97659.00
2019-01-09T17:02:26.775Z,97659.39
2019-01-09T17:04:57.991Z,97658.16
2019-01-09T17:07:28.401Z,97665.27
2019-01-09T17:09:58.840Z,97675.05
2019-01-09T17:12:29.307Z,97667.69
2019-01-09T17:14:59.759Z,97674.72
2019-01-09T17:17:30.026Z,97679.08
2019-01-09T17:20:00.362Z,97677.20
2019-01-09T17:22:31.200Z,97681.91
2019-01-09T17:25:01.349Z,97674.88
2019-01-09T17:27:31.570Z,97688.92
2019-01-09T17:30:01.896Z,97684.36
2019-01-09T17:32:32.109Z,97686.03
2019-01-09T17:35:02.452Z,97690.08
2019-01-09T17:37:32.618Z,97689.02
2019-01-09T17:40:02.953Z,97690.08
2019-01-09T17:42:33.393Z,97689.09
2019-01-09T17:45:04.178Z,97695.14
2019-01-09T17:47:34.612Z,97693.84
2019-01-09T17:50:07.934Z,97700.42
2019-01-09T17:52:38.328Z,97697.06
2019-01-09T17:55:10.987Z,97702.30
2019-01-09T17:57:41.296Z,97716.41
2019-01-09T18:00:17.342Z,97706.58
2019-01-09T18:02:48.061Z,97699.69
2019-01-09T18:05:18.788Z,97702.41
2019-01-09T18:07:49.206Z,97707.15
2019-01-09T18:10:21.979Z,97707.58
2019-01-09T18:12:52.384Z,97709.34
2019-01-09T18:15:24.744Z,97707.05
2019-01-09T18:17:55.670Z,97710.16
2019-01-09T18:20:26.016Z,97716.53
2019-01-09T18:22:56.481Z,97715.14
2019-01-09T18:25:29.096Z,97721.59
2019-01-09T18:27:59.447Z,97720.86
2019-01-09T18:31:05.714Z,97720.90
2019-01-09T18:33:58.062Z,97729.73
2019-01-09T18:37:18.925Z,97729.24
2019-01-09T18:40:19.209Z,97734.35
2019-01-09T18:43:23.577Z,97733.98
2019-01-09T18:46:24.053Z,97742.38
2019-01-09T18:49:56.740Z,97740.30
2019-01-09T18:52:58.026Z,97743.92
2019-01-09T18:55:28.351Z,97743.11
2019-01-09T18:57:58.798Z,97751.08
2019-01-09T19:00:29.235Z,97749.81
2019-01-09T19:02:59.639Z,97749.49
2019-01-09T19:05:30.005Z,97753.20
2019-01-09T19:08:01.411Z,97752.43
2019-01-09T19:10:32.077Z,97752.06
2019-01-09T19:13:02.512Z,97759.42
2019-01-09T19:15:32.873Z,97758.84
2019-01-09T19:18:03.392Z,97762.61
2019-01-09T19:20:33.700Z,97769.12
2019-01-09T19:23:04.207Z,97768.58
2019-01-09T19:25:34.733Z,97770.63
2019-01-09T19:28:05.207Z,97771.45
2019-01-09T19:30:35.819Z,97768.63
2019-01-09T19:33:06.441Z,97784.28
2019-01-09T19:35:36.793Z,97787.92
2019-01-09T19:38:07.291Z,97781.58
2019-01-09T19:40:37.701Z,97786.66
2019-01-09T19:43:08.046Z,97789.88
2019-01-09T19:45:38.561Z,97787.76
2019-01-09T19:48:09.090Z,97795.94
2019-01-09T19:50:42.607Z,97798.23
2019-01-09T19:53:11.612Z,97798.27
2019-01-09T19:55:41.920Z,97809.05
2019-01-09T19:58:12.290Z,97810.24
2019-01-09T20:00:42.978Z,97814.74
2019-01-09T20:03:13.376Z,97808.34
2019-01-09T20:05:43.937Z,97816.48
2019-01-09T20:08:14.473Z,97820.18
2019-01-09T20:10:44.861Z,97827.91
2019-01-09T20:13:15.394Z,97824.67
2019-01-09T20:15:45.824Z,97815.52
2019-01-09T20:18:17.370Z,97821.52
2019-01-09T20:20:47.879Z,97823.27
2019-01-09T20:23:18.494Z,97823.39
2019-01-09T20:25:48.848Z,97823.36
2019-01-09T20:28:19.469Z,97828.95
2019-01-09T20:30:49.945Z,97830.27
2019-01-09T20:33:20.468Z,97823.72
2019-01-09T20:35:50.900Z,97827.77
2019-01-09T20:38:21.306Z,97829.64
2019-01-09T20:40:51.791Z,97832.03
2019-01-09T20:43:22.323Z,97829.41
2019-01-09T20:45:52.710Z,97831.50
2019-01-09T20:48:23.119Z,97831.24
2019-01-09T20:50:53.720Z,97826.80
2019-01-09T20:53:27.853Z,97827.48
2019-01-09T20:55:58.324Z,97838.40
2019-01-09T20:58:29.163Z,97838.56
2019-01-09T21:00:59.547Z,97831.37
2019-01-09T21:03:29.986Z,97842.33
2019-01-09T21:06:00.559Z,97837.06
2019-01-09T21:08:31.082Z,97834.61
2019-01-09T21:11:01.763Z,97844.05
2019-01-09T21:13:32.076Z,97837.68
2019-01-09T21:16:02.546Z,97840.82
2019-01-09T21:18:32.974Z,97840.98
2019-01-09T21:21:03.399Z,97846.51
2019-01-09T21:23:33.757Z,97853.21
2019-01-09T21:26:04.225Z,97848.63
2019-01-09T21:28:34.571Z,97858.50
2019-01-09T21:31:05.238Z,97861.97
2019-01-09T21:33:35.526Z,97865.38
2019-01-09T21:36:06.387Z,97866.16
2019-01-09T21:38:36.706Z,97863.21
2019-01-09T21:41:08.379Z,97868.90
2019-01-09T21:43:38.200Z,97872.13
2019-01-09T21:46:08.617Z,97878.84
2019-01-09T21:48:39.073Z,97875.31
2019-01-09T21:51:09.620Z,97880.42
2019-01-09T21:53:39.958Z,97870.93
2019-01-09T21:56:10.382Z,97870.31
2019-01-09T21:58:41.698Z,97875.71
2019-01-09T22:01:12.221Z,97877.11
2019-01-09T22:03:42.764Z,97889.28
2019-01-09T22:06:14.047Z,97883.52
2019-01-09T22:08:44.425Z,97889.22
2019-01-09T22:11:14.867Z,97902.70
2019-01-09T22:13:45.313Z,97893.44
2019-01-09T22:16:15.693Z,97896.94
2019-01-09T22:18:46.077Z,97901.72
2019-01-09T22:21:16.733Z,97901.52
2019-01-09T22:23:47.010Z,97901.45
2019-01-09T22:26:18.034Z,97906.84
2019-01-09T22:28:48.660Z,97906.59
2019-01-09T22:31:19.100Z,97905.09
2019-01-09T22:33:49.450Z,97912.13
2019-01-09T22:36:19.995Z,97911.63
2019-01-09T22:38:51.670Z,97911.55
2019-01-09T22:41:22.121Z,97910.24
2019-01-09T22:43:52.470Z,97922.63
2019-01-09T22:46:22.899Z,97927.56
2019-01-09T22:48:53.443Z,97920.84
2019-01-09T22:51:23.974Z,97923.94
2019-01-09T22:53:54.415Z,97922.12
2019-01-09T22:56:24.914Z,97920.54
2019-01-09T22:58:55.353Z,97923.75
2019-01-09T23:01:29.055Z,97927.59
2019-01-09T23:03:59.512Z,97933.40
2019-01-09T23:06:29.918Z,97928.87
2019-01-09T23:09:00.402Z,97927.05
2019-01-09T23:11:30.762Z,97923.16
2019-01-09T23:14:01.187Z,97922.47
2019-01-09T23:16:31.586Z,97918.58
2019-01-09T23:19:02.126Z,97916.54
2019-01-09T23:21:33.193Z,97928.34
2019-01-09T23:24:04.027Z,97923.94
2019-01-09T23:26:35.424Z,97925.77
2019-01-09T23:29:06.454Z,97920.98
2019-01-09T23:31:36.976Z,97923.97
2019-01-09T23:34:07.387Z,97932.61
2019-01-09T23:36:37.836Z,97931.16
2019-01-09T23:39:11.771Z,97928.22
2019-01-09T23:41:42.266Z,97933.28
2019-01-09T23:44:12.607Z,97934.42
2019-01-09T23:46:43.024Z,97928.41
2019-01-09T23:49:13.355Z,97927.10
2019-01-09T23:51:43.830Z,97928.41
2019-01-09T23:54:14.159Z,97931.07
2019-01-09T23:56:44.505Z,97927.75
2019-01-09T23:59:14.794Z,97935.44
